sensor_id;sensor_type;location;lat;lon;timestamp;P1;durP1;ratioP1;P2;durP2;ratioP2
9128;SDS011;4599;50.906;6.786;2022-12-07T00:02:49;24.93;;;18.10;;
9128;SDS011;4599;50.906;6.786;2022-12-07T00:06:51;30.83;;;18.47;;
9128;SDS011;4599;50.906;6.786;2022-12-07T00:10:54;25.50;;;17.07;;
9128;SDS011;4599;50.906;6.786;2022-12-07T00:14:57;25.97;;;17.63;;
9128;SDS011;4599;50.906;6.786;2022-12-07T00:18:58;29.97;;;18.87;;
9128;SDS011;4599;50.906;6.786;2022-12-07T00:23:00;30.23;;;19.30;;
9128;SDS011;4599;50.906;6.786;2022-12-07T00:27:02;25.67;;;18.23;;
9128;SDS011;4599;50.906;6.786;2022-12-07T00:31:05;28.60;;;19.63;;
9128;SDS011;4599;50.906;6.786;2022-12-07T00:35:08;25.87;;;19.70;;
9128;SDS011;4599;50.906;6.786;2022-12-07T00:39:10;30.20;;;20.13;;
9128;SDS011;4599;50.906;6.786;2022-12-07T00:43:12;28.17;;;20.27;;
9128;SDS011;4599;50.906;6.786;2022-12-07T00:47:15;32.00;;;21.90;;
9128;SDS011;4599;50.906;6.786;2022-12-07T00:51:17;29.47;;;21.50;;
9128;SDS011;4599;50.906;6.786;2022-12-07T00:55:21;35.43;;;21.70;;
9128;SDS011;4599;50.906;6.786;2022-12-07T00:59:22;28.97;;;21.57;;
9128;SDS011;4599;50.906;6.786;2022-12-07T01:03:25;36.03;;;20.93;;
9128;SDS011;4599;50.906;6.786;2022-12-07T01:07:26;31.73;;;21.13;;
9128;SDS011;4599;50.906;6.786;2022-12-07T01:11:29;28.97;;;20.07;;
9128;SDS011;4599;50.906;6.786;2022-12-07T01:15:31;27.23;;;20.10;;
9128;SDS011;4599;50.906;6.786;2022-12-07T01:19:34;32.63;;;20.97;;
9128;SDS011;4599;50.906;6.786;2022-12-07T01:23:36;30.47;;;20.73;;
9128;SDS011;4599;50.906;6.786;2022-12-07T01:27:37;27.30;;;20.07;;
9128;SDS011;4599;50.906;6.786;2022-12-07T01:31:39;28.90;;;20.93;;
9128;SDS011;4599;50.906;6.786;2022-12-07T01:35:42;27.20;;;20.73;;
9128;SDS011;4599;50.906;6.786;2022-12-07T01:39:43;31.13;;;21.13;;
9128;SDS011;4599;50.906;6.786;2022-12-07T01:48:09;26.13;;;20.70;;
9128;SDS011;4599;50.906;6.786;2022-12-07T01:52:15;29.93;;;20.27;;
9128;SDS011;4599;50.906;6.786;2022-12-07T01:56:22;26.73;;;19.13;;
9128;SDS011;4599;50.906;6.786;2022-12-07T02:00:26;26.37;;;19.40;;
9128;SDS011;4599;50.906;6.786;2022-12-07T02:04:28;28.70;;;19.80;;
9128;SDS011;4599;50.906;6.786;2022-12-07T02:08:31;27.93;;;19.50;;
9128;SDS011;4599;50.906;6.786;2022-12-07T02:12:33;32.03;;;21.00;;
9128;SDS011;4599;50.906;6.786;2022-12-07T02:16:35;29.63;;;19.80;;
9128;SDS011;4599;50.906;6.786;2022-12-07T02:20:45;27.07;;;19.97;;
9128;SDS011;4599;50.906;6.786;2022-12-07T02:24:56;27.20;;;20.10;;
9128;SDS011;4599;50.906;6.786;2022-12-07T02:29:11;26.07;;;20.33;;
9128;SDS011;4599;50.906;6.786;2022-12-07T02:33:18;31.93;;;20.83;;
9128;SDS011;4599;50.906;6.786;2022-12-07T02:37:27;26.33;;;20.13;;
9128;SDS011;4599;50.906;6.786;2022-12-07T02:41:36;28.43;;;20.53;;
9128;SDS011;4599;50.906;6.786;2022-12-07T02:45:43;26.00;;;19.10;;
9128;SDS011;4599;50.906;6.786;2022-12-07T02:49:46;25.73;;;19.77;;
9128;SDS011;4599;50.906;6.786;2022-12-07T02:53:48;28.13;;;19.37;;
9128;SDS011;4599;50.906;6.786;2022-12-07T02:57:53;27.00;;;19.57;;
9128;SDS011;4599;50.906;6.786;2022-12-07T03:02:11;25.47;;;19.90;;
9128;SDS011;4599;50.906;6.786;2022-12-07T03:06:20;29.33;;;19.97;;
9128;SDS011;4599;50.906;6.786;2022-12-07T03:10:32;26.33;;;19.53;;
9128;SDS011;4599;50.906;6.786;2022-12-07T03:14:38;28.00;;;20.23;;
9128;SDS011;4599;50.906;6.786;2022-12-07T03:18:48;30.03;;;20.90;;
9128;SDS011;4599;50.906;6.786;2022-12-07T03:22:53;24.97;;;19.47;;
9128;SDS011;4599;50.906;6.786;2022-12-07T03:26:58;28.87;;;20.13;;
9128;SDS011;4599;50.906;6.786;2022-12-07T03:31:03;28.17;;;20.07;;
9128;SDS011;4599;50.906;6.786;2022-12-07T03:35:11;27.87;;;19.73;;
9128;SDS011;4599;50.906;6.786;2022-12-07T03:39:18;29.10;;;20.13;;
9128;SDS011;4599;50.906;6.786;2022-12-07T03:43:24;30.47;;;20.33;;
9128;SDS011;4599;50.906;6.786;2022-12-07T03:47:27;25.90;;;20.20;;
9128;SDS011;4599;50.906;6.786;2022-12-07T03:51:36;26.53;;;21.03;;
9128;SDS011;4599;50.906;6.786;2022-12-07T03:55:44;28.47;;;20.60;;
9128;SDS011;4599;50.906;6.786;2022-12-07T03:59:48;30.33;;;20.10;;
9128;SDS011;4599;50.906;6.786;2022-12-07T04:03:50;33.27;;;21.50;;
9128;SDS011;4599;50.906;6.786;2022-12-07T04:07:53;28.77;;;19.40;;
9128;SDS011;4599;50.906;6.786;2022-12-07T04:11:55;28.13;;;20.33;;
9128;SDS011;4599;50.906;6.786;2022-12-07T04:15:56;31.13;;;21.80;;
9128;SDS011;4599;50.906;6.786;2022-12-07T04:19:58;30.20;;;20.17;;
9128;SDS011;4599;50.906;6.786;2022-12-07T04:24:01;32.47;;;19.80;;
9128;SDS011;4599;50.906;6.786;2022-12-07T04:28:03;27.23;;;19.90;;
9128;SDS011;4599;50.906;6.786;2022-12-07T04:32:04;28.77;;;19.77;;
9128;SDS011;4599;50.906;6.786;2022-12-07T04:36:06;27.83;;;19.90;;
9128;SDS011;4599;50.906;6.786;2022-12-07T04:40:10;27.73;;;19.30;;
9128;SDS011;4599;50.906;6.786;2022-12-07T04:44:11;28.20;;;19.33;;
9128;SDS011;4599;50.906;6.786;2022-12-07T04:48:14;23.57;;;19.33;;
9128;SDS011;4599;50.906;6.786;2022-12-07T04:52:15;28.13;;;19.97;;
9128;SDS011;4599;50.906;6.786;2022-12-07T04:56:18;28.93;;;18.77;;
9128;SDS011;4599;50.906;6.786;2022-12-07T05:00:20;26.03;;;18.67;;
9128;SDS011;4599;50.906;6.786;2022-12-07T05:04:22;26.20;;;18.03;;
9128;SDS011;4599;50.906;6.786;2022-12-07T05:08:23;24.83;;;17.87;;
9128;SDS011;4599;50.906;6.786;2022-12-07T05:12:26;28.00;;;20.23;;
9128;SDS011;4599;50.906;6.786;2022-12-07T05:16:28;29.30;;;19.63;;
9128;SDS011;4599;50.906;6.786;2022-12-07T05:20:30;31.63;;;19.37;;
9128;SDS011;4599;50.906;6.786;2022-12-07T05:24:32;28.40;;;19.93;;
9128;SDS011;4599;50.906;6.786;2022-12-07T05:28:34;30.63;;;20.10;;
9128;SDS011;4599;50.906;6.786;2022-12-07T05:32:36;26.13;;;18.80;;
9128;SDS011;4599;50.906;6.786;2022-12-07T05:36:38;26.90;;;19.20;;
9128;SDS011;4599;50.906;6.786;2022-12-07T05:40:39;26.83;;;19.60;;
9128;SDS011;4599;50.906;6.786;2022-12-07T05:44:43;30.87;;;20.13;;
9128;SDS011;4599;50.906;6.786;2022-12-07T05:48:46;24.83;;;19.37;;
9128;SDS011;4599;50.906;6.786;2022-12-07T05:52:47;25.47;;;19.13;;
9128;SDS011;4599;50.906;6.786;2022-12-07T05:56:49;26.27;;;18.47;;
9128;SDS011;4599;50.906;6.786;2022-12-07T06:00:53;28.03;;;19.27;;
9128;SDS011;4599;50.906;6.786;2022-12-07T06:04:55;29.07;;;18.60;;
9128;SDS011;4599;50.906;6.786;2022-12-07T06:08:56;28.97;;;20.03;;
9128;SDS011;4599;50.906;6.786;2022-12-07T06:12:58;29.80;;;19.43;;
9128;SDS011;4599;50.906;6.786;2022-12-07T06:17:01;25.40;;;18.87;;
9128;SDS011;4599;50.906;6.786;2022-12-07T06:21:03;32.37;;;19.43;;
9128;SDS011;4599;50.906;6.786;2022-12-07T06:25:05;29.47;;;18.03;;
9128;SDS011;4599;50.906;6.786;2022-12-07T06:29:09;26.13;;;19.33;;
9128;SDS011;4599;50.906;6.786;2022-12-07T06:33:13;24.57;;;17.60;;
9128;SDS011;4599;50.906;6.786;2022-12-07T06:37:14;28.13;;;17.97;;
9128;SDS011;4599;50.906;6.786;2022-12-07T06:41:16;28.00;;;19.50;;
9128;SDS011;4599;50.906;6.786;2022-12-07T06:45:17;30.43;;;19.50;;
9128;SDS011;4599;50.906;6.786;2022-12-07T06:49:20;24.40;;;18.47;;
9128;SDS011;4599;50.906;6.786;2022-12-07T06:53:22;25.13;;;18.80;;
9128;SDS011;4599;50.906;6.786;2022-12-07T06:57:24;28.83;;;18.67;;
9128;SDS011;4599;50.906;6.786;2022-12-07T07:01:26;26.23;;;17.70;;
9128;SDS011;4599;50.906;6.786;2022-12-07T07:05:29;32.10;;;18.33;;
9128;SDS011;4599;50.906;6.786;2022-12-07T07:09:30;24.53;;;17.37;;
9128;SDS011;4599;50.906;6.786;2022-12-07T07:13:32;23.53;;;18.40;;
9128;SDS011;4599;50.906;6.786;2022-12-07T07:17:34;25.37;;;18.67;;
9128;SDS011;4599;50.906;6.786;2022-12-07T07:21:37;25.27;;;18.77;;
9128;SDS011;4599;50.906;6.786;2022-12-07T07:25:39;28.37;;;18.57;;
9128;SDS011;4599;50.906;6.786;2022-12-07T07:29:40;29.47;;;19.80;;
9128;SDS011;4599;50.906;6.786;2022-12-07T07:33:42;27.37;;;18.53;;
9128;SDS011;4599;50.906;6.786;2022-12-07T07:37:45;27.20;;;19.27;;
9128;SDS011;4599;50.906;6.786;2022-12-07T07:41:46;25.67;;;17.47;;
9128;SDS011;4599;50.906;6.786;2022-12-07T07:45:48;21.57;;;16.13;;
9128;SDS011;4599;50.906;6.786;2022-12-07T07:49:50;28.03;;;17.23;;
9128;SDS011;4599;50.906;6.786;2022-12-07T07:53:52;24.13;;;16.43;;
9128;SDS011;4599;50.906;6.786;2022-12-07T07:57:54;21.90;;;15.67;;
9128;SDS011;4599;50.906;6.786;2022-12-07T08:01:56;25.40;;;16.93;;
9128;SDS011;4599;50.906;6.786;2022-12-07T08:05:58;24.90;;;15.83;;
9128;SDS011;4599;50.906;6.786;2022-12-07T08:10:01;21.40;;;14.77;;
9128;SDS011;4599;50.906;6.786;2022-12-07T08:14:04;22.40;;;15.00;;
9128;SDS011;4599;50.906;6.786;2022-12-07T08:18:06;18.27;;;14.17;;
9128;SDS011;4599;50.906;6.786;2022-12-07T08:22:08;23.93;;;15.37;;
9128;SDS011;4599;50.906;6.786;2022-12-07T08:26:12;21.47;;;14.97;;
9128;SDS011;4599;50.906;6.786;2022-12-07T08:30:14;23.43;;;14.67;;
9128;SDS011;4599;50.906;6.786;2022-12-07T08:34:16;25.43;;;16.23;;
9128;SDS011;4599;50.906;6.786;2022-12-07T08:38:18;23.43;;;15.83;;
9128;SDS011;4599;50.906;6.786;2022-12-07T08:42:21;22.33;;;14.33;;
9128;SDS011;4599;50.906;6.786;2022-12-07T08:46:23;23.80;;;15.60;;
9128;SDS011;4599;50.906;6.786;2022-12-07T08:50:28;21.33;;;14.63;;
9128;SDS011;4599;50.906;6.786;2022-12-07T08:54:29;22.70;;;13.47;;
9128;SDS011;4599;50.906;6.786;2022-12-07T08:58:34;25.37;;;14.57;;
9128;SDS011;4599;50.906;6.786;2022-12-07T09:02:37;24.50;;;14.60;;
9128;SDS011;4599;50.906;6.786;2022-12-07T09:06:39;20.97;;;14.43;;
9128;SDS011;4599;50.906;6.786;2022-12-07T09:10:41;23.00;;;15.10;;
9128;SDS011;4599;50.906;6.786;2022-12-07T09:14:44;21.80;;;13.77;;
9128;SDS011;4599;50.906;6.786;2022-12-07T09:18:45;19.07;;;13.83;;
9128;SDS011;4599;50.906;6.786;2022-12-07T09:22:47;20.10;;;14.40;;
9128;SDS011;4599;50.906;6.786;2022-12-07T09:26:48;20.77;;;13.77;;
9128;SDS011;4599;50.906;6.786;2022-12-07T09:30:51;20.90;;;14.70;;
9128;SDS011;4599;50.906;6.786;2022-12-07T09:35:13;20.67;;;13.93;;
9128;SDS011;4599;50.906;6.786;2022-12-07T09:39:14;20.20;;;13.67;;
9128;SDS011;4599;50.906;6.786;2022-12-07T09:43:17;20.53;;;13.50;;
9128;SDS011;4599;50.906;6.786;2022-12-07T09:47:22;15.40;;;10.87;;
9128;SDS011;4599;50.906;6.786;2022-12-07T09:51:23;14.70;;;11.17;;
9128;SDS011;4599;50.906;6.786;2022-12-07T09:55:27;18.17;;;11.23;;
9128;SDS011;4599;50.906;6.786;2022-12-07T09:59:29;17.37;;;11.73;;
9128;SDS011;4599;50.906;6.786;2022-12-07T10:03:38;18.77;;;11.43;;
9128;SDS011;4599;50.906;6.786;2022-12-07T10:07:43;18.47;;;11.23;;
9128;SDS011;4599;50.906;6.786;2022-12-07T10:11:58;17.50;;;11.13;;
9128;SDS011;4599;50.906;6.786;2022-12-07T10:16:00;15.87;;;11.23;;
9128;SDS011;4599;50.906;6.786;2022-12-07T10:20:11;16.80;;;10.40;;
9128;SDS011;4599;50.906;6.786;2022-12-07T10:24:15;15.47;;;9.73;;
9128;SDS011;4599;50.906;6.786;2022-12-07T10:28:17;14.57;;;9.47;;
9128;SDS011;4599;50.906;6.786;2022-12-07T10:32:28;13.67;;;9.37;;
9128;SDS011;4599;50.906;6.786;2022-12-07T10:36:35;15.73;;;9.57;;
9128;SDS011;4599;50.906;6.786;2022-12-07T10:40:38;16.97;;;10.27;;
9128;SDS011;4599;50.906;6.786;2022-12-07T10:44:46;19.93;;;9.20;;
9128;SDS011;4599;50.906;6.786;2022-12-07T10:48:51;15.50;;;8.43;;
9128;SDS011;4599;50.906;6.786;2022-12-07T10:57:43;13.20;;;7.20;;
9128;SDS011;4599;50.906;6.786;2022-12-07T11:01:58;10.27;;;6.63;;
9128;SDS011;4599;50.906;6.786;2022-12-07T11:06:25;13.50;;;5.80;;
9128;SDS011;4599;50.906;6.786;2022-12-07T11:10:35;10.80;;;5.17;;
9128;SDS011;4599;50.906;6.786;2022-12-07T11:14:47;9.50;;;5.43;;
9128;SDS011;4599;50.906;6.786;2022-12-07T11:19:06;10.60;;;5.30;;
9128;SDS011;4599;50.906;6.786;2022-12-07T11:23:30;7.33;;;4.73;;
9128;SDS011;4599;50.906;6.786;2022-12-07T11:27:45;9.83;;;5.50;;
9128;SDS011;4599;50.906;6.786;2022-12-07T11:31:58;10.27;;;5.13;;
9128;SDS011;4599;50.906;6.786;2022-12-07T11:36:14;13.10;;;6.20;;
9128;SDS011;4599;50.906;6.786;2022-12-07T11:40:31;9.43;;;5.97;;
9128;SDS011;4599;50.906;6.786;2022-12-07T11:44:39;9.87;;;6.77;;
9128;SDS011;4599;50.906;6.786;2022-12-07T11:48:51;15.13;;;7.83;;
9128;SDS011;4599;50.906;6.786;2022-12-07T11:52:59;17.07;;;7.57;;
9128;SDS011;4599;50.906;6.786;2022-12-07T11:57:05;12.80;;;7.53;;
9128;SDS011;4599;50.906;6.786;2022-12-07T12:01:26;14.37;;;7.90;;
9128;SDS011;4599;50.906;6.786;2022-12-07T12:05:41;14.53;;;8.43;;
9128;SDS011;4599;50.906;6.786;2022-12-07T12:09:44;14.80;;;7.77;;
9128;SDS011;4599;50.906;6.786;2022-12-07T12:13:57;16.13;;;7.60;;
9128;SDS011;4599;50.906;6.786;2022-12-07T12:18:44;15.77;;;8.13;;
9128;SDS011;4599;50.906;6.786;2022-12-07T12:22:55;13.23;;;7.50;;
9128;SDS011;4599;50.906;6.786;2022-12-07T12:27:02;14.10;;;7.40;;
9128;SDS011;4599;50.906;6.786;2022-12-07T12:31:07;11.97;;;7.00;;
9128;SDS011;4599;50.906;6.786;2022-12-07T12:35:27;12.60;;;6.87;;
9128;SDS011;4599;50.906;6.786;2022-12-07T12:39:31;10.20;;;6.50;;
9128;SDS011;4599;50.906;6.786;2022-12-07T12:43:46;12.90;;;7.20;;
9128;SDS011;4599;50.906;6.786;2022-12-07T12:47:55;12.47;;;7.47;;
9128;SDS011;4599;50.906;6.786;2022-12-07T12:52:01;15.57;;;7.93;;
9128;SDS011;4599;50.906;6.786;2022-12-07T12:56:51;12.03;;;7.13;;
9128;SDS011;4599;50.906;6.786;2022-12-07T13:05:47;12.17;;;7.17;;
9128;SDS011;4599;50.906;6.786;2022-12-07T13:09:50;13.20;;;6.83;;
9128;SDS011;4599;50.906;6.786;2022-12-07T13:13:52;13.43;;;7.30;;
9128;SDS011;4599;50.906;6.786;2022-12-07T13:22:39;12.27;;;6.60;;
9128;SDS011;4599;50.906;6.786;2022-12-07T13:26:45;13.37;;;6.77;;
9128;SDS011;4599;50.906;6.786;2022-12-07T13:30:50;11.80;;;6.67;;
9128;SDS011;4599;50.906;6.786;2022-12-07T13:35:05;11.47;;;6.40;;
9128;SDS011;4599;50.906;6.786;2022-12-07T13:39:28;12.23;;;6.63;;
9128;SDS011;4599;50.906;6.786;2022-12-07T13:43:41;10.23;;;6.00;;
9128;SDS011;4599;50.906;6.786;2022-12-07T13:47:44;14.03;;;6.80;;
9128;SDS011;4599;50.906;6.786;2022-12-07T13:51:50;9.57;;;6.27;;
9128;SDS011;4599;50.906;6.786;2022-12-07T13:55:52;11.30;;;6.80;;
9128;SDS011;4599;50.906;6.786;2022-12-07T13:59:56;11.63;;;6.83;;
9128;SDS011;4599;50.906;6.786;2022-12-07T14:08:30;12.57;;;7.40;;
9128;SDS011;4599;50.906;6.786;2022-12-07T14:12:32;13.03;;;7.30;;
9128;SDS011;4599;50.906;6.786;2022-12-07T14:16:38;10.60;;;7.00;;
9128;SDS011;4599;50.906;6.786;2022-12-07T14:20:40;12.43;;;6.60;;
9128;SDS011;4599;50.906;6.786;2022-12-07T14:24:42;11.83;;;6.57;;
9128;SDS011;4599;50.906;6.786;2022-12-07T14:28:44;8.53;;;6.50;;
9128;SDS011;4599;50.906;6.786;2022-12-07T14:32:48;12.57;;;6.43;;
9128;SDS011;4599;50.906;6.786;2022-12-07T14:36:52;11.13;;;6.53;;
9128;SDS011;4599;50.906;6.786;2022-12-07T14:40:54;12.73;;;6.80;;
9128;SDS011;4599;50.906;6.786;2022-12-07T14:44:56;13.17;;;6.13;;
9128;SDS011;4599;50.906;6.786;2022-12-07T14:49:00;11.37;;;6.53;;
9128;SDS011;4599;50.906;6.786;2022-12-07T14:53:22;10.03;;;6.03;;
9128;SDS011;4599;50.906;6.786;2022-12-07T14:57:29;11.93;;;6.70;;
9128;SDS011;4599;50.906;6.786;2022-12-07T15:01:31;13.70;;;6.67;;
9128;SDS011;4599;50.906;6.786;2022-12-07T15:05:34;11.20;;;6.27;;
9128;SDS011;4599;50.906;6.786;2022-12-07T15:09:36;12.53;;;5.83;;
9128;SDS011;4599;50.906;6.786;2022-12-07T15:13:38;15.27;;;6.10;;
9128;SDS011;4599;50.906;6.786;2022-12-07T15:17:40;13.60;;;5.73;;
9128;SDS011;4599;50.906;6.786;2022-12-07T15:21:43;9.40;;;5.27;;
9128;SDS011;4599;50.906;6.786;2022-12-07T15:25:46;11.47;;;5.70;;
9128;SDS011;4599;50.906;6.786;2022-12-07T15:29:49;10.70;;;5.87;;
9128;SDS011;4599;50.906;6.786;2022-12-07T15:33:51;15.20;;;6.07;;
9128;SDS011;4599;50.906;6.786;2022-12-07T15:37:54;10.83;;;5.53;;
9128;SDS011;4599;50.906;6.786;2022-12-07T15:41:55;11.23;;;5.43;;
9128;SDS011;4599;50.906;6.786;2022-12-07T15:45:57;10.93;;;4.47;;
9128;SDS011;4599;50.906;6.786;2022-12-07T15:49:59;8.50;;;4.83;;
9128;SDS011;4599;50.906;6.786;2022-12-07T15:54:02;11.30;;;4.63;;
9128;SDS011;4599;50.906;6.786;2022-12-07T15:58:03;5.20;;;3.50;;
9128;SDS011;4599;50.906;6.786;2022-12-07T16:02:05;6.13;;;2.67;;
9128;SDS011;4599;50.906;6.786;2022-12-07T16:06:07;8.70;;;3.03;;
9128;SDS011;4599;50.906;6.786;2022-12-07T16:10:10;3.23;;;1.87;;
9128;SDS011;4599;50.906;6.786;2022-12-07T16:14:12;3.93;;;2.33;;
9128;SDS011;4599;50.906;6.786;2022-12-07T16:18:14;3.20;;;1.60;;
9128;SDS011;4599;50.906;6.786;2022-12-07T16:22:15;4.90;;;1.50;;
9128;SDS011;4599;50.906;6.786;2022-12-07T16:26:19;4.20;;;1.63;;
9128;SDS011;4599;50.906;6.786;2022-12-07T16:30:22;5.07;;;1.60;;
9128;SDS011;4599;50.906;6.786;2022-12-07T16:34:23;3.63;;;1.93;;
9128;SDS011;4599;50.906;6.786;2022-12-07T16:38:24;4.97;;;1.90;;
9128;SDS011;4599;50.906;6.786;2022-12-07T16:42:27;5.07;;;2.30;;
9128;SDS011;4599;50.906;6.786;2022-12-07T16:46:33;5.17;;;1.80;;
9128;SDS011;4599;50.906;6.786;2022-12-07T16:50:38;8.00;;;2.37;;
9128;SDS011;4599;50.906;6.786;2022-12-07T16:54:40;6.03;;;2.30;;
9128;SDS011;4599;50.906;6.786;2022-12-07T16:58:43;5.50;;;3.30;;
9128;SDS011;4599;50.906;6.786;2022-12-07T17:02:44;5.43;;;3.37;;
9128;SDS011;4599;50.906;6.786;2022-12-07T17:06:46;4.73;;;3.43;;
9128;SDS011;4599;50.906;6.786;2022-12-07T17:10:47;11.93;;;4.70;;
9128;SDS011;4599;50.906;6.786;2022-12-07T17:14:50;6.63;;;4.93;;
9128;SDS011;4599;50.906;6.786;2022-12-07T17:18:51;8.00;;;5.70;;
9128;SDS011;4599;50.906;6.786;2022-12-07T17:22:53;10.00;;;6.93;;
9128;SDS011;4599;50.906;6.786;2022-12-07T17:26:54;8.73;;;6.53;;
9128;SDS011;4599;50.906;6.786;2022-12-07T17:30:57;9.87;;;7.57;;
9128;SDS011;4599;50.906;6.786;2022-12-07T17:34:58;11.47;;;7.80;;
9128;SDS011;4599;50.906;6.786;2022-12-07T17:39:00;12.17;;;7.13;;
9128;SDS011;4599;50.906;6.786;2022-12-07T17:43:02;13.07;;;9.03;;
9128;SDS011;4599;50.906;6.786;2022-12-07T17:47:04;13.53;;;8.53;;
9128;SDS011;4599;50.906;6.786;2022-12-07T17:51:06;14.10;;;8.57;;
9128;SDS011;4599;50.906;6.786;2022-12-07T17:55:07;15.13;;;9.60;;
9128;SDS011;4599;50.906;6.786;2022-12-07T17:59:09;14.47;;;9.03;;
9128;SDS011;4599;50.906;6.786;2022-12-07T18:03:12;14.17;;;9.30;;
9128;SDS011;4599;50.906;6.786;2022-12-07T18:07:13;18.43;;;7.97;;
9128;SDS011;4599;50.906;6.786;2022-12-07T18:11:15;13.83;;;8.97;;
9128;SDS011;4599;50.906;6.786;2022-12-07T18:15:23;13.80;;;9.33;;
9128;SDS011;4599;50.906;6.786;2022-12-07T18:19:26;13.73;;;8.30;;
9128;SDS011;4599;50.906;6.786;2022-12-07T18:23:27;15.20;;;8.90;;
9128;SDS011;4599;50.906;6.786;2022-12-07T18:27:28;12.63;;;7.73;;
9128;SDS011;4599;50.906;6.786;2022-12-07T18:31:30;17.83;;;9.03;;
9128;SDS011;4599;50.906;6.786;2022-12-07T18:35:33;14.43;;;8.73;;
9128;SDS011;4599;50.906;6.786;2022-12-07T18:39:34;13.80;;;8.37;;
9128;SDS011;4599;50.906;6.786;2022-12-07T18:43:36;13.47;;;8.00;;
9128;SDS011;4599;50.906;6.786;2022-12-07T18:47:38;14.07;;;8.00;;
9128;SDS011;4599;50.906;6.786;2022-12-07T18:51:41;11.63;;;8.23;;
9128;SDS011;4599;50.906;6.786;2022-12-07T18:55:42;15.10;;;8.83;;
9128;SDS011;4599;50.906;6.786;2022-12-07T18:59:44;14.60;;;9.50;;
9128;SDS011;4599;50.906;6.786;2022-12-07T19:03:45;13.90;;;10.60;;
9128;SDS011;4599;50.906;6.786;2022-12-07T19:07:48;17.70;;;10.70;;
9128;SDS011;4599;50.906;6.786;2022-12-07T19:11:50;19.67;;;10.90;;
9128;SDS011;4599;50.906;6.786;2022-12-07T19:15:52;18.70;;;11.10;;
9128;SDS011;4599;50.906;6.786;2022-12-07T19:19:54;20.47;;;12.20;;
9128;SDS011;4599;50.906;6.786;2022-12-07T19:23:56;15.00;;;11.87;;
9128;SDS011;4599;50.906;6.786;2022-12-07T19:27:58;18.50;;;11.63;;
9128;SDS011;4599;50.906;6.786;2022-12-07T19:31:59;20.63;;;12.20;;
9128;SDS011;4599;50.906;6.786;2022-12-07T19:36:02;15.77;;;11.13;;
9128;SDS011;4599;50.906;6.786;2022-12-07T19:40:06;21.23;;;12.67;;
9128;SDS011;4599;50.906;6.786;2022-12-07T19:44:10;18.20;;;11.90;;
9128;SDS011;4599;50.906;6.786;2022-12-07T19:48:12;18.13;;;12.77;;
9128;SDS011;4599;50.906;6.786;2022-12-07T19:52:13;18.77;;;12.77;;
9128;SDS011;4599;50.906;6.786;2022-12-07T19:56:16;19.17;;;13.33;;
9128;SDS011;4599;50.906;6.786;2022-12-07T20:00:19;20.03;;;13.00;;
9128;SDS011;4599;50.906;6.786;2022-12-07T20:04:22;18.97;;;13.27;;
9128;SDS011;4599;50.906;6.786;2022-12-07T20:08:25;16.47;;;12.40;;
9128;SDS011;4599;50.906;6.786;2022-12-07T20:12:28;18.43;;;12.87;;
9128;SDS011;4599;50.906;6.786;2022-12-07T20:16:29;16.47;;;12.47;;
9128;SDS011;4599;50.906;6.786;2022-12-07T20:20:33;23.40;;;12.77;;
9128;SDS011;4599;50.906;6.786;2022-12-07T20:24:34;22.50;;;12.40;;
9128;SDS011;4599;50.906;6.786;2022-12-07T20:28:37;17.17;;;12.67;;
9128;SDS011;4599;50.906;6.786;2022-12-07T20:32:39;17.43;;;13.00;;
9128;SDS011;4599;50.906;6.786;2022-12-07T20:36:40;18.67;;;12.73;;
9128;SDS011;4599;50.906;6.786;2022-12-07T20:40:45;16.87;;;12.77;;
9128;SDS011;4599;50.906;6.786;2022-12-07T20:44:48;16.50;;;13.00;;
9128;SDS011;4599;50.906;6.786;2022-12-07T20:48:50;15.73;;;12.33;;
9128;SDS011;4599;50.906;6.786;2022-12-07T20:52:52;16.90;;;12.13;;
9128;SDS011;4599;50.906;6.786;2022-12-07T20:57:00;20.13;;;12.87;;
9128;SDS011;4599;50.906;6.786;2022-12-07T21:01:03;15.53;;;11.70;;
9128;SDS011;4599;50.906;6.786;2022-12-07T21:05:05;18.70;;;11.50;;
9128;SDS011;4599;50.906;6.786;2022-12-07T21:09:08;18.20;;;11.93;;
9128;SDS011;4599;50.906;6.786;2022-12-07T21:13:11;16.77;;;12.00;;
9128;SDS011;4599;50.906;6.786;2022-12-07T21:17:17;14.87;;;11.50;;
9128;SDS011;4599;50.906;6.786;2022-12-07T21:21:18;16.50;;;11.30;;
9128;SDS011;4599;50.906;6.786;2022-12-07T21:25:20;14.47;;;11.30;;
9128;SDS011;4599;50.906;6.786;2022-12-07T21:29:21;16.90;;;11.73;;
9128;SDS011;4599;50.906;6.786;2022-12-07T21:33:42;17.80;;;11.90;;
9128;SDS011;4599;50.906;6.786;2022-12-07T21:37:44;16.20;;;11.23;;
9128;SDS011;4599;50.906;6.786;2022-12-07T21:41:46;14.53;;;11.53;;
9128;SDS011;4599;50.906;6.786;2022-12-07T21:45:48;15.10;;;11.40;;
9128;SDS011;4599;50.906;6.786;2022-12-07T21:49:52;17.03;;;10.80;;
9128;SDS011;4599;50.906;6.786;2022-12-07T21:53:54;19.47;;;11.33;;
9128;SDS011;4599;50.906;6.786;2022-12-07T21:57:56;16.63;;;11.67;;
9128;SDS011;4599;50.906;6.786;2022-12-07T22:01:58;15.17;;;11.73;;
9128;SDS011;4599;50.906;6.786;2022-12-07T22:06:00;16.23;;;12.00;;
9128;SDS011;4599;50.906;6.786;2022-12-07T22:10:02;20.00;;;12.53;;
9128;SDS011;4599;50.906;6.786;2022-12-07T22:14:04;18.37;;;12.80;;
9128;SDS011;4599;50.906;6.786;2022-12-07T22:18:10;15.90;;;12.40;;
9128;SDS011;4599;50.906;6.786;2022-12-07T22:22:13;16.40;;;13.07;;
9128;SDS011;4599;50.906;6.786;2022-12-07T22:26:15;19.10;;;14.17;;
9128;SDS011;4599;50.906;6.786;2022-12-07T22:30:22;20.57;;;14.17;;
9128;SDS011;4599;50.906;6.786;2022-12-07T22:34:24;20.83;;;13.47;;
9128;SDS011;4599;50.906;6.786;2022-12-07T22:38:27;19.53;;;14.13;;
9128;SDS011;4599;50.906;6.786;2022-12-07T22:42:28;20.93;;;14.33;;
9128;SDS011;4599;50.906;6.786;2022-12-07T22:46:30;22.77;;;14.10;;
9128;SDS011;4599;50.906;6.786;2022-12-07T22:50:31;20.47;;;14.23;;
9128;SDS011;4599;50.906;6.786;2022-12-07T22:54:34;22.27;;;14.33;;
9128;SDS011;4599;50.906;6.786;2022-12-07T22:58:35;19.43;;;13.40;;
9128;SDS011;4599;50.906;6.786;2022-12-07T23:02:37;18.17;;;12.80;;
9128;SDS011;4599;50.906;6.786;2022-12-07T23:06:38;23.97;;;13.40;;
9128;SDS011;4599;50.906;6.786;2022-12-07T23:10:42;19.43;;;13.07;;
9128;SDS011;4599;50.906;6.786;2022-12-07T23:14:44;16.67;;;13.23;;
9128;SDS011;4599;50.906;6.786;2022-12-07T23:18:46;20.60;;;13.77;;
9128;SDS011;4599;50.906;6.786;2022-12-07T23:22:47;18.60;;;13.13;;
9128;SDS011;4599;50.906;6.786;2022-12-07T23:26:50;15.93;;;12.03;;
9128;SDS011;4599;50.906;6.786;2022-12-07T23:30:52;18.43;;;12.67;;
9128;SDS011;4599;50.906;6.786;2022-12-07T23:34:53;17.27;;;11.90;;
9128;SDS011;4599;50.906;6.786;2022-12-07T23:38:56;17.23;;;11.60;;
9128;SDS011;4599;50.906;6.786;2022-12-07T23:42:59;17.03;;;11.63;;
9128;SDS011;4599;50.906;6.786;2022-12-07T23:47:01;16.77;;;11.83;;
9128;SDS011;4599;50.906;6.786;2022-12-07T23:51:02;19.10;;;12.50;;
9128;SDS011;4599;50.906;6.786;2022-12-07T23:55:05;19.17;;;12.53;;
9128;SDS011;4599;50.906;6.786;2022-12-07T23:59:09;20.03;;;12.83;;
